Leon, Oklahoma
Current Conditions -  °F | °C
As of 4:55 PM on Thursday 23 Oct 2014 (Local Time) from KGLE Reporting Station
Broken Clouds Broken Clouds  
Wind Chill: 76°   Ceiling: 5000
Heat Index: 78°   Visibility: 10mi
Dew Point: 58°   Wind: 10mph
Humidity: 54%   Direction: 140°SE
Pressure: 30.08"   Gusts: NA
Location:  33.88°N, 97.43°W
Report Text: KGLE 232155Z AUTO 14009KT 10SM BKN050 25/15 A3008 RMK AO2 T02450145
Loading
Personal Weather Stations






























Interactive Weather Map
Tropical Storm Tracking
New forecast layout! Learn more

10-Day Weather Forecast

Advertisements
Track Severe Weather on mobile